sensor_id;sensor_type;location;lat;lon;timestamp;pressure;altitude;pressure_sealevel;temperature;humidity
6134;BME280;3098;42.678;23.364;2023-04-26T00:00:29;94027.69;;;8.30;100.00
6134;BME280;3098;42.678;23.364;2023-04-26T00:02:58;93975.81;;;8.00;100.00
6134;BME280;3098;42.678;23.364;2023-04-26T00:05:27;94025.97;;;8.26;100.00
6134;BME280;3098;42.678;23.364;2023-04-26T00:07:54;93964.50;;;7.91;100.00
6134;BME280;3098;42.678;23.364;2023-04-26T00:10:21;93992.91;;;8.11;100.00
6134;BME280;3098;42.678;23.364;2023-04-26T00:12:48;93947.75;;;7.70;100.00
6134;BME280;3098;42.678;23.364;2023-04-26T00:15:15;94025.19;;;8.17;100.00
6134;BME280;3098;42.678;23.364;2023-04-26T00:17:42;93954.25;;;7.81;100.00
6134;BME280;3098;42.678;23.364;2023-04-26T00:20:10;94007.97;;;8.10;100.00
6134;BME280;3098;42.678;23.364;2023-04-26T00:22:39;93961.72;;;7.79;100.00
6134;BME280;3098;42.678;23.364;2023-04-26T00:25:08;94006.91;;;8.03;100.00
6134;BME280;3098;42.678;23.364;2023-04-26T00:27:35;94009.66;;;7.98;100.00
6134;BME280;3098;42.678;23.364;2023-04-26T00:30:03;93991.53;;;7.79;100.00
6134;BME280;3098;42.678;23.364;2023-04-26T00:32:30;93913.00;;;7.25;100.00
6134;BME280;3098;42.678;23.364;2023-04-26T00:35:01;93975.69;;;7.53;100.00
6134;BME280;3098;42.678;23.364;2023-04-26T00:37:28;93958.63;;;7.51;100.00
6134;BME280;3098;42.678;23.364;2023-04-26T00:39:56;93938.16;;;7.48;100.00
6134;BME280;3098;42.678;23.364;2023-04-26T00:42:26;94004.09;;;7.91;100.00
6134;BME280;3098;42.678;23.364;2023-04-26T00:44:53;93986.25;;;7.79;100.00
6134;BME280;3098;42.678;23.364;2023-04-26T00:47:22;93943.41;;;7.48;100.00
6134;BME280;3098;42.678;23.364;2023-04-26T00:49:49;93946.50;;;7.50;100.00
6134;BME280;3098;42.678;23.364;2023-04-26T00:52:16;94005.97;;;7.82;100.00
6134;BME280;3098;42.678;23.364;2023-04-26T00:54:43;93982.81;;;7.79;100.00
6134;BME280;3098;42.678;23.364;2023-04-26T00:57:12;93990.59;;;7.84;100.00
6134;BME280;3098;42.678;23.364;2023-04-26T00:59:39;94005.63;;;7.92;100.00
6134;BME280;3098;42.678;23.364;2023-04-26T01:02:06;93988.88;;;7.88;100.00
6134;BME280;3098;42.678;23.364;2023-04-26T01:04:33;94003.16;;;7.95;100.00
6134;BME280;3098;42.678;23.364;2023-04-26T01:07:01;94010.44;;;7.98;100.00
6134;BME280;3098;42.678;23.364;2023-04-26T01:09:31;94010.00;;;8.05;100.00
6134;BME280;3098;42.678;23.364;2023-04-26T01:11:58;93996.34;;;7.86;100.00
6134;BME280;3098;42.678;23.364;2023-04-26T01:14:27;94004.88;;;7.91;100.00
6134;BME280;3098;42.678;23.364;2023-04-26T01:16:54;93965.16;;;7.62;100.00
6134;BME280;3098;42.678;23.364;2023-04-26T01:19:22;93962.19;;;7.64;100.00
6134;BME280;3098;42.678;23.364;2023-04-26T01:21:50;94017.91;;;7.96;100.00
6134;BME280;3098;42.678;23.364;2023-04-26T01:24:18;94010.63;;;7.93;100.00
6134;BME280;3098;42.678;23.364;2023-04-26T01:26:45;93967.94;;;7.66;100.00
6134;BME280;3098;42.678;23.364;2023-04-26T01:29:17;93774.97;;;6.35;100.00
6134;BME280;3098;42.678;23.364;2023-04-26T01:31:44;93992.47;;;7.75;100.00
6134;BME280;3098;42.678;23.364;2023-04-26T01:34:11;93996.03;;;7.62;100.00
6134;BME280;3098;42.678;23.364;2023-04-26T01:36:39;93962.66;;;7.31;100.00
6134;BME280;3098;42.678;23.364;2023-04-26T01:39:06;94011.56;;;7.63;100.00
6134;BME280;3098;42.678;23.364;2023-04-26T01:41:35;94000.22;;;7.80;100.00
6134;BME280;3098;42.678;23.364;2023-04-26T01:44:02;93995.25;;;7.70;100.00
6134;BME280;3098;42.678;23.364;2023-04-26T01:46:29;94004.28;;;7.69;100.00
6134;BME280;3098;42.678;23.364;2023-04-26T01:48:56;93965.13;;;7.28;100.00
6134;BME280;3098;42.678;23.364;2023-04-26T01:51:23;94020.25;;;7.64;100.00
6134;BME280;3098;42.678;23.364;2023-04-26T01:53:50;93973.84;;;7.45;100.00
6134;BME280;3098;42.678;23.364;2023-04-26T01:56:18;93988.28;;;7.57;100.00
6134;BME280;3098;42.678;23.364;2023-04-26T01:58:46;93975.06;;;7.48;100.00
6134;BME280;3098;42.678;23.364;2023-04-26T02:01:13;94019.50;;;7.80;100.00
6134;BME280;3098;42.678;23.364;2023-04-26T02:03:40;94017.16;;;7.79;100.00
6134;BME280;3098;42.678;23.364;2023-04-26T02:06:07;93970.88;;;7.47;100.00
6134;BME280;3098;42.678;23.364;2023-04-26T02:08:34;94005.03;;;7.69;100.00
6134;BME280;3098;42.678;23.364;2023-04-26T02:11:01;93945.91;;;7.44;100.00
6134;BME280;3098;42.678;23.364;2023-04-26T02:13:28;93999.00;;;7.77;100.00
6134;BME280;3098;42.678;23.364;2023-04-26T02:15:58;94002.38;;;7.69;100.00
6134;BME280;3098;42.678;23.364;2023-04-26T02:18:25;94001.00;;;7.72;100.00
6134;BME280;3098;42.678;23.364;2023-04-26T02:20:52;93980.97;;;7.71;100.00
6134;BME280;3098;42.678;23.364;2023-04-26T02:23:19;93935.66;;;7.43;100.00
6134;BME280;3098;42.678;23.364;2023-04-26T02:25:47;93922.78;;;7.24;100.00
6134;BME280;3098;42.678;23.364;2023-04-26T02:28:14;93975.84;;;7.48;100.00
6134;BME280;3098;42.678;23.364;2023-04-26T02:30:42;94001.00;;;7.55;100.00
6134;BME280;3098;42.678;23.364;2023-04-26T02:33:11;93971.97;;;7.37;100.00
6134;BME280;3098;42.678;23.364;2023-04-26T02:35:38;94004.41;;;7.55;100.00
6134;BME280;3098;42.678;23.364;2023-04-26T02:38:05;93961.56;;;7.32;100.00
6134;BME280;3098;42.678;23.364;2023-04-26T02:40:32;94006.56;;;7.53;100.00
6134;BME280;3098;42.678;23.364;2023-04-26T02:42:59;93949.63;;;7.18;100.00
6134;BME280;3098;42.678;23.364;2023-04-26T02:45:27;93977.88;;;7.43;100.00
6134;BME280;3098;42.678;23.364;2023-04-26T02:47:54;93997.28;;;7.64;100.00
6134;BME280;3098;42.678;23.364;2023-04-26T02:50:22;93889.41;;;6.85;100.00
6134;BME280;3098;42.678;23.364;2023-04-26T02:52:49;93908.50;;;7.00;100.00
6134;BME280;3098;42.678;23.364;2023-04-26T02:55:17;93994.31;;;7.48;100.00
6134;BME280;3098;42.678;23.364;2023-04-26T02:57:44;93984.69;;;7.44;100.00
6134;BME280;3098;42.678;23.364;2023-04-26T03:00:11;93973.69;;;7.42;100.00
6134;BME280;3098;42.678;23.364;2023-04-26T03:02:39;93895.13;;;6.87;100.00
6134;BME280;3098;42.678;23.364;2023-04-26T03:05:07;93773.97;;;6.05;100.00
6134;BME280;3098;42.678;23.364;2023-04-26T03:07:36;93911.28;;;6.94;100.00
6134;BME280;3098;42.678;23.364;2023-04-26T03:10:04;93988.56;;;7.55;100.00
6134;BME280;3098;42.678;23.364;2023-04-26T03:12:31;93932.06;;;7.13;100.00
6134;BME280;3098;42.678;23.364;2023-04-26T03:14:58;93985.78;;;7.43;100.00
6134;BME280;3098;42.678;23.364;2023-04-26T03:17:27;93996.47;;;7.46;100.00
6134;BME280;3098;42.678;23.364;2023-04-26T03:19:55;93930.06;;;7.19;100.00
6134;BME280;3098;42.678;23.364;2023-04-26T03:22:22;93963.75;;;7.39;100.00
6134;BME280;3098;42.678;23.364;2023-04-26T03:24:50;93948.38;;;7.49;100.00
6134;BME280;3098;42.678;23.364;2023-04-26T03:27:17;93971.97;;;7.63;100.00
6134;BME280;3098;42.678;23.364;2023-04-26T03:29:44;93790.91;;;6.38;100.00
6134;BME280;3098;42.678;23.364;2023-04-26T03:32:12;93967.78;;;7.71;100.00
6134;BME280;3098;42.678;23.364;2023-04-26T03:34:38;93981.59;;;7.68;100.00
6134;BME280;3098;42.678;23.364;2023-04-26T03:37:05;93979.13;;;7.54;100.00
6134;BME280;3098;42.678;23.364;2023-04-26T03:39:33;93968.84;;;7.44;100.00
6134;BME280;3098;42.678;23.364;2023-04-26T03:42:01;93978.97;;;7.68;100.00
6134;BME280;3098;42.678;23.364;2023-04-26T03:44:29;93975.84;;;7.57;100.00
6134;BME280;3098;42.678;23.364;2023-04-26T03:46:56;93955.38;;;7.45;100.00
6134;BME280;3098;42.678;23.364;2023-04-26T03:49:24;93931.63;;;7.37;100.00
6134;BME280;3098;42.678;23.364;2023-04-26T03:51:51;93990.44;;;7.80;100.00
6134;BME280;3098;42.678;23.364;2023-04-26T03:54:18;93969.00;;;7.99;100.00
6134;BME280;3098;42.678;23.364;2023-04-26T03:56:44;93991.78;;;8.29;100.00
6134;BME280;3098;42.678;23.364;2023-04-26T03:59:13;93970.19;;;8.27;100.00
6134;BME280;3098;42.678;23.364;2023-04-26T04:01:39;93991.22;;;8.61;100.00
6134;BME280;3098;42.678;23.364;2023-04-26T04:04:06;93990.22;;;8.75;100.00
6134;BME280;3098;42.678;23.364;2023-04-26T04:06:34;93978.75;;;8.71;100.00
6134;BME280;3098;42.678;23.364;2023-04-26T04:09:02;93962.91;;;8.71;100.00
6134;BME280;3098;42.678;23.364;2023-04-26T04:11:29;93904.31;;;8.60;100.00
6134;BME280;3098;42.678;23.364;2023-04-26T04:13:57;93885.94;;;8.63;100.00
6134;BME280;3098;42.678;23.364;2023-04-26T04:16:26;93947.41;;;8.90;100.00
6134;BME280;3098;42.678;23.364;2023-04-26T04:18:53;93994.41;;;9.13;100.00
6134;BME280;3098;42.678;23.364;2023-04-26T04:21:20;93990.88;;;9.01;100.00
6134;BME280;3098;42.678;23.364;2023-04-26T04:23:47;93984.69;;;8.97;100.00
6134;BME280;3098;42.678;23.364;2023-04-26T04:26:14;93917.38;;;8.65;100.00
6134;BME280;3098;42.678;23.364;2023-04-26T04:28:41;93993.19;;;9.32;100.00
6134;BME280;3098;42.678;23.364;2023-04-26T04:31:10;93910.78;;;9.00;100.00
6134;BME280;3098;42.678;23.364;2023-04-26T04:33:38;93859.81;;;8.71;100.00
6134;BME280;3098;42.678;23.364;2023-04-26T04:36:06;93894.41;;;9.07;100.00
6134;BME280;3098;42.678;23.364;2023-04-26T04:38:34;93989.16;;;9.75;100.00
6134;BME280;3098;42.678;23.364;2023-04-26T04:41:01;93990.41;;;10.11;100.00
6134;BME280;3098;42.678;23.364;2023-04-26T04:43:28;93981.44;;;10.24;100.00
6134;BME280;3098;42.678;23.364;2023-04-26T04:45:56;93972.25;;;10.21;100.00
6134;BME280;3098;42.678;23.364;2023-04-26T04:48:23;93985.22;;;10.35;100.00
6134;BME280;3098;42.678;23.364;2023-04-26T04:50:51;93976.66;;;10.17;100.00
6134;BME280;3098;42.678;23.364;2023-04-26T04:53:18;93988.34;;;10.49;100.00
6134;BME280;3098;42.678;23.364;2023-04-26T04:55:45;93967.06;;;10.25;100.00
6134;BME280;3098;42.678;23.364;2023-04-26T04:58:13;93989.03;;;10.58;100.00
6134;BME280;3098;42.678;23.364;2023-04-26T05:00:41;93913.66;;;10.02;100.00
6134;BME280;3098;42.678;23.364;2023-04-26T05:03:07;93990.91;;;10.70;100.00
6134;BME280;3098;42.678;23.364;2023-04-26T05:05:35;93798.13;;;9.20;100.00
6134;BME280;3098;42.678;23.364;2023-04-26T05:08:04;93944.56;;;10.31;100.00
6134;BME280;3098;42.678;23.364;2023-04-26T05:10:33;93890.56;;;10.23;100.00
6134;BME280;3098;42.678;23.364;2023-04-26T05:13:02;93909.59;;;10.50;100.00
6134;BME280;3098;42.678;23.364;2023-04-26T05:15:30;93958.41;;;10.85;100.00
6134;BME280;3098;42.678;23.364;2023-04-26T05:17:59;93983.19;;;11.25;100.00
6134;BME280;3098;42.678;23.364;2023-04-26T05:20:26;93989.22;;;12.02;100.00
6134;BME280;3098;42.678;23.364;2023-04-26T05:22:54;93986.75;;;11.81;100.00
6134;BME280;3098;42.678;23.364;2023-04-26T05:25:22;93963.50;;;11.78;100.00
6134;BME280;3098;42.678;23.364;2023-04-26T05:27:49;94008.34;;;11.80;100.00
6134;BME280;3098;42.678;23.364;2023-04-26T05:30:17;93994.19;;;11.76;100.00
6134;BME280;3098;42.678;23.364;2023-04-26T05:32:44;93943.81;;;11.67;100.00
6134;BME280;3098;42.678;23.364;2023-04-26T05:35:12;93931.72;;;11.82;100.00
6134;BME280;3098;42.678;23.364;2023-04-26T05:37:39;93999.94;;;12.33;100.00
6134;BME280;3098;42.678;23.364;2023-04-26T05:40:08;93996.41;;;12.29;100.00
6134;BME280;3098;42.678;23.364;2023-04-26T05:42:38;94002.91;;;12.59;100.00
6134;BME280;3098;42.678;23.364;2023-04-26T05:45:06;93965.84;;;13.64;100.00
6134;BME280;3098;42.678;23.364;2023-04-26T05:47:35;93893.97;;;13.67;100.00
6134;BME280;3098;42.678;23.364;2023-04-26T05:50:02;93996.84;;;15.13;97.31
6134;BME280;3098;42.678;23.364;2023-04-26T05:52:29;94003.72;;;14.30;94.58
6134;BME280;3098;42.678;23.364;2023-04-26T05:54:56;93941.09;;;13.63;97.20
6134;BME280;3098;42.678;23.364;2023-04-26T05:57:24;93891.50;;;13.78;97.10
6134;BME280;3098;42.678;23.364;2023-04-26T05:59:53;93969.97;;;12.48;100.00
6134;BME280;3098;42.678;23.364;2023-04-26T06:02:20;93903.31;;;12.57;100.00
6134;BME280;3098;42.678;23.364;2023-04-26T06:04:47;94007.28;;;13.11;100.00
6134;BME280;3098;42.678;23.364;2023-04-26T06:07:14;94010.88;;;13.18;100.00
6134;BME280;3098;42.678;23.364;2023-04-26T06:09:41;94006.50;;;13.10;100.00
6134;BME280;3098;42.678;23.364;2023-04-26T06:12:08;94005.44;;;13.15;100.00
6134;BME280;3098;42.678;23.364;2023-04-26T06:14:35;94004.34;;;13.16;100.00
6134;BME280;3098;42.678;23.364;2023-04-26T06:17:04;93834.00;;;12.03;100.00
6134;BME280;3098;42.678;23.364;2023-04-26T06:19:31;93905.00;;;12.65;100.00
6134;BME280;3098;42.678;23.364;2023-04-26T06:21:59;94006.56;;;13.30;100.00
6134;BME280;3098;42.678;23.364;2023-04-26T06:24:27;93990.94;;;13.28;100.00
6134;BME280;3098;42.678;23.364;2023-04-26T06:26:54;94004.84;;;13.72;100.00
6134;BME280;3098;42.678;23.364;2023-04-26T06:29:21;93991.72;;;13.63;99.57
6134;BME280;3098;42.678;23.364;2023-04-26T06:31:49;93982.31;;;13.35;100.00
6134;BME280;3098;42.678;23.364;2023-04-26T06:34:18;94002.84;;;14.42;99.66
6134;BME280;3098;42.678;23.364;2023-04-26T06:36:45;94002.75;;;15.48;95.38
6134;BME280;3098;42.678;23.364;2023-04-26T06:39:13;94001.28;;;16.74;87.14
6134;BME280;3098;42.678;23.364;2023-04-26T06:41:42;94004.41;;;15.83;85.74
6134;BME280;3098;42.678;23.364;2023-04-26T06:44:09;93977.34;;;15.88;85.40
6134;BME280;3098;42.678;23.364;2023-04-26T06:46:37;93976.63;;;16.98;76.23
6134;BME280;3098;42.678;23.364;2023-04-26T06:49:04;93998.31;;;16.49;74.06
6134;BME280;3098;42.678;23.364;2023-04-26T06:51:34;93896.69;;;15.52;74.24
6134;BME280;3098;42.678;23.364;2023-04-26T06:54:01;93996.22;;;16.65;67.99
6134;BME280;3098;42.678;23.364;2023-04-26T06:56:28;93899.75;;;15.28;69.40
6134;BME280;3098;42.678;23.364;2023-04-26T06:59:00;94002.13;;;15.32;70.17
6134;BME280;3098;42.678;23.364;2023-04-26T07:01:28;93875.38;;;13.90;72.32
6134;BME280;3098;42.678;23.364;2023-04-26T07:03:58;93855.34;;;13.39;74.58
6134;BME280;3098;42.678;23.364;2023-04-26T07:06:26;94010.84;;;15.52;71.61
6134;BME280;3098;42.678;23.364;2023-04-26T07:08:55;94015.19;;;16.20;68.70
6134;BME280;3098;42.678;23.364;2023-04-26T07:11:24;93995.25;;;16.14;63.13
6134;BME280;3098;42.678;23.364;2023-04-26T07:13:52;94014.91;;;15.98;63.44
6134;BME280;3098;42.678;23.364;2023-04-26T07:16:19;94018.13;;;15.55;65.10
6134;BME280;3098;42.678;23.364;2023-04-26T07:18:47;94012.97;;;15.43;67.00
6134;BME280;3098;42.678;23.364;2023-04-26T07:21:14;94020.72;;;15.03;69.79
6134;BME280;3098;42.678;23.364;2023-04-26T07:23:41;94021.28;;;14.51;70.51
6134;BME280;3098;42.678;23.364;2023-04-26T07:26:11;94015.19;;;14.31;72.77
6134;BME280;3098;42.678;23.364;2023-04-26T07:28:38;93992.78;;;13.97;74.22
6134;BME280;3098;42.678;23.364;2023-04-26T07:31:06;94031.78;;;15.27;69.69
6134;BME280;3098;42.678;23.364;2023-04-26T07:33:34;93998.75;;;15.39;66.03
6134;BME280;3098;42.678;23.364;2023-04-26T07:36:01;93703.91;;;13.60;64.47
6134;BME280;3098;42.678;23.364;2023-04-26T07:38:28;94035.50;;;15.45;61.80
6134;BME280;3098;42.678;23.364;2023-04-26T07:40:55;94006.59;;;16.07;62.27
6134;BME280;3098;42.678;23.364;2023-04-26T07:43:25;94003.50;;;17.05;58.74
6134;BME280;3098;42.678;23.364;2023-04-26T07:45:52;93960.06;;;16.12;57.01
6134;BME280;3098;42.678;23.364;2023-04-26T07:48:19;94025.19;;;16.26;60.17
6134;BME280;3098;42.678;23.364;2023-04-26T07:50:47;94042.38;;;16.55;58.83
6134;BME280;3098;42.678;23.364;2023-04-26T07:53:14;94026.63;;;15.61;61.48
6134;BME280;3098;42.678;23.364;2023-04-26T07:55:41;94027.13;;;14.98;65.10
6134;BME280;3098;42.678;23.364;2023-04-26T07:58:08;94040.22;;;15.29;62.79
6134;BME280;3098;42.678;23.364;2023-04-26T08:00:41;94047.56;;;14.90;62.32
6134;BME280;3098;42.678;23.364;2023-04-26T08:03:08;94031.34;;;14.57;62.13
6134;BME280;3098;42.678;23.364;2023-04-26T08:05:37;94036.47;;;14.27;63.25
6134;BME280;3098;42.678;23.364;2023-04-26T08:08:04;94003.66;;;14.88;62.15
6134;BME280;3098;42.678;23.364;2023-04-26T08:10:32;94032.81;;;15.94;59.87
6134;BME280;3098;42.678;23.364;2023-04-26T08:12:59;93847.59;;;14.14;60.32
6134;BME280;3098;42.678;23.364;2023-04-26T08:15:28;94034.09;;;16.04;57.22
6134;BME280;3098;42.678;23.364;2023-04-26T08:17:58;94033.16;;;15.93;57.86
6134;BME280;3098;42.678;23.364;2023-04-26T08:20:25;93973.53;;;15.89;56.58
6134;BME280;3098;42.678;23.364;2023-04-26T08:22:54;94034.22;;;17.18;53.47
6134;BME280;3098;42.678;23.364;2023-04-26T08:25:22;94010.81;;;16.38;55.27
6134;BME280;3098;42.678;23.364;2023-04-26T08:27:50;94035.03;;;16.52;54.94
6134;BME280;3098;42.678;23.364;2023-04-26T08:30:18;94010.06;;;16.71;53.81
6134;BME280;3098;42.678;23.364;2023-04-26T08:32:45;94040.22;;;17.04;53.41
6134;BME280;3098;42.678;23.364;2023-04-26T08:35:14;94035.50;;;17.31;52.70
6134;BME280;3098;42.678;23.364;2023-04-26T08:37:41;93844.38;;;15.25;54.54
6134;BME280;3098;42.678;23.364;2023-04-26T08:40:09;94029.44;;;16.01;55.73
6134;BME280;3098;42.678;23.364;2023-04-26T08:42:39;93838.88;;;15.41;54.59
6134;BME280;3098;42.678;23.364;2023-04-26T08:45:09;93905.25;;;15.98;54.05
6134;BME280;3098;42.678;23.364;2023-04-26T08:47:42;94033.28;;;16.96;51.46
6134;BME280;3098;42.678;23.364;2023-04-26T08:50:11;94001.34;;;15.84;55.02
6134;BME280;3098;42.678;23.364;2023-04-26T08:52:41;93982.28;;;15.33;56.38
6134;BME280;3098;42.678;23.364;2023-04-26T08:55:10;93899.03;;;14.56;57.96
6134;BME280;3098;42.678;23.364;2023-04-26T08:57:38;94035.28;;;15.31;56.74
6134;BME280;3098;42.678;23.364;2023-04-26T09:00:07;93970.56;;;14.70;58.96
6134;BME280;3098;42.678;23.364;2023-04-26T09:02:39;94042.72;;;15.19;58.04
6134;BME280;3098;42.678;23.364;2023-04-26T09:05:08;94045.41;;;15.68;57.01
6134;BME280;3098;42.678;23.364;2023-04-26T09:07:41;93910.94;;;14.85;54.84
6134;BME280;3098;42.678;23.364;2023-04-26T09:10:10;94037.41;;;15.94;55.21
6134;BME280;3098;42.678;23.364;2023-04-26T09:12:39;94047.16;;;15.57;56.06
6134;BME280;3098;42.678;23.364;2023-04-26T09:15:07;94048.28;;;15.10;56.80
6134;BME280;3098;42.678;23.364;2023-04-26T09:17:35;94053.13;;;15.24;56.97
6134;BME280;3098;42.678;23.364;2023-04-26T09:20:17;94046.28;;;15.49;56.77
6134;BME280;3098;42.678;23.364;2023-04-26T09:22:47;94042.63;;;16.13;55.06
6134;BME280;3098;42.678;23.364;2023-04-26T09:25:18;94050.91;;;15.78;55.21
6134;BME280;3098;42.678;23.364;2023-04-26T09:27:45;93929.97;;;15.59;53.21
6134;BME280;3098;42.678;23.364;2023-04-26T09:30:14;94050.38;;;16.85;52.08
6134;BME280;3098;42.678;23.364;2023-04-26T09:32:49;94045.13;;;16.32;52.06
6134;BME280;3098;42.678;23.364;2023-04-26T09:35:28;94055.72;;;15.66;55.03
6134;BME280;3098;42.678;23.364;2023-04-26T09:37:59;94000.47;;;16.06;53.80
6134;BME280;3098;42.678;23.364;2023-04-26T09:40:29;94052.91;;;16.11;52.60
6134;BME280;3098;42.678;23.364;2023-04-26T09:42:58;94046.78;;;15.58;52.83
6134;BME280;3098;42.678;23.364;2023-04-26T09:45:26;94051.69;;;15.52;54.40
6134;BME280;3098;42.678;23.364;2023-04-26T09:47:53;94045.53;;;15.48;54.13
6134;BME280;3098;42.678;23.364;2023-04-26T09:50:30;93966.59;;;15.06;54.04
6134;BME280;3098;42.678;23.364;2023-04-26T09:52:58;93998.84;;;15.20;53.40
6134;BME280;3098;42.678;23.364;2023-04-26T09:55:28;94032.00;;;15.15;54.10
6134;BME280;3098;42.678;23.364;2023-04-26T09:57:55;94007.81;;;15.31;53.77
6134;BME280;3098;42.678;23.364;2023-04-26T10:00:25;93964.75;;;14.64;52.29
6134;BME280;3098;42.678;23.364;2023-04-26T10:02:53;93976.09;;;15.03;53.55
6134;BME280;3098;42.678;23.364;2023-04-26T10:05:21;94018.16;;;15.10;53.36
6134;BME280;3098;42.678;23.364;2023-04-26T10:07:51;94028.16;;;14.93;53.49
6134;BME280;3098;42.678;23.364;2023-04-26T10:10:19;94040.66;;;15.80;51.91
6134;BME280;3098;42.678;23.364;2023-04-26T10:12:47;93940.72;;;15.92;49.55
6134;BME280;3098;42.678;23.364;2023-04-26T10:15:15;94012.78;;;16.78;47.53
6134;BME280;3098;42.678;23.364;2023-04-26T10:17:45;93928.41;;;15.54;48.59
6134;BME280;3098;42.678;23.364;2023-04-26T10:20:13;93971.00;;;15.99;48.30
6134;BME280;3098;42.678;23.364;2023-04-26T10:22:45;94019.06;;;16.55;47.18
6134;BME280;3098;42.678;23.364;2023-04-26T10:25:17;93789.13;;;14.24;47.42
6134;BME280;3098;42.678;23.364;2023-04-26T10:27:52;94017.38;;;15.55;47.01
6134;BME280;3098;42.678;23.364;2023-04-26T10:30:20;93984.13;;;15.29;47.40
6134;BME280;3098;42.678;23.364;2023-04-26T10:33:10;93865.53;;;14.36;47.52
6134;BME280;3098;42.678;23.364;2023-04-26T10:36:02;94014.22;;;15.49;47.53
6134;BME280;3098;42.678;23.364;2023-04-26T10:38:30;93949.53;;;15.96;46.43
6134;BME280;3098;42.678;23.364;2023-04-26T10:41:27;94012.69;;;15.74;47.06
6134;BME280;3098;42.678;23.364;2023-04-26T10:47:06;94023.78;;;15.27;48.15
6134;BME280;3098;42.678;23.364;2023-04-26T10:49:51;93995.56;;;15.30;46.47
6134;BME280;3098;42.678;23.364;2023-04-26T10:52:19;94018.03;;;15.48;46.95
6134;BME280;3098;42.678;23.364;2023-04-26T10:54:49;93929.88;;;14.76;45.99
6134;BME280;3098;42.678;23.364;2023-04-26T10:57:18;94017.81;;;15.60;45.52
6134;BME280;3098;42.678;23.364;2023-04-26T11:00:25;94015.09;;;15.57;44.43
6134;BME280;3098;42.678;23.364;2023-04-26T11:02:55;93973.81;;;14.82;45.70
6134;BME280;3098;42.678;23.364;2023-04-26T11:05:33;94016.78;;;14.74;45.81
6134;BME280;3098;42.678;23.364;2023-04-26T11:08:04;94012.06;;;15.09;45.81
6134;BME280;3098;42.678;23.364;2023-04-26T11:10:32;93981.41;;;14.58;45.73
6134;BME280;3098;42.678;23.364;2023-04-26T11:13:00;94014.34;;;14.88;46.38
6134;BME280;3098;42.678;23.364;2023-04-26T11:15:30;93982.00;;;14.70;45.51
6134;BME280;3098;42.678;23.364;2023-04-26T11:17:57;94021.72;;;14.94;45.95
6134;BME280;3098;42.678;23.364;2023-04-26T11:20:28;94009.38;;;15.35;46.13
6134;BME280;3098;42.678;23.364;2023-04-26T11:22:56;94006.44;;;15.40;44.72
6134;BME280;3098;42.678;23.364;2023-04-26T11:25:24;93895.00;;;14.66;45.42
6134;BME280;3098;42.678;23.364;2023-04-26T11:27:57;93966.47;;;15.74;43.85
6134;BME280;3098;42.678;23.364;2023-04-26T11:30:27;93861.78;;;15.12;43.38
6134;BME280;3098;42.678;23.364;2023-04-26T11:32:56;94024.09;;;16.01;43.09
6134;BME280;3098;42.678;23.364;2023-04-26T11:35:24;94017.78;;;15.57;44.04
6134;BME280;3098;42.678;23.364;2023-04-26T11:37:52;93744.28;;;13.62;44.36
6134;BME280;3098;42.678;23.364;2023-04-26T11:40:18;94012.53;;;15.64;44.65
6134;BME280;3098;42.678;23.364;2023-04-26T11:42:46;93983.84;;;15.90;44.55
6134;BME280;3098;42.678;23.364;2023-04-26T11:45:16;93922.66;;;15.52;43.53
6134;BME280;3098;42.678;23.364;2023-04-26T11:47:44;93917.84;;;15.38;43.76
6134;BME280;3098;42.678;23.364;2023-04-26T11:50:14;94033.13;;;16.19;42.84
6134;BME280;3098;42.678;23.364;2023-04-26T11:52:42;94014.31;;;15.82;43.46
6134;BME280;3098;42.678;23.364;2023-04-26T11:55:10;94001.75;;;16.16;43.40
6134;BME280;3098;42.678;23.364;2023-04-26T11:57:38;94011.25;;;16.43;41.98
6134;BME280;3098;42.678;23.364;2023-04-26T12:00:09;93971.59;;;16.19;42.27
6134;BME280;3098;42.678;23.364;2023-04-26T12:02:44;93977.50;;;16.65;42.11
6134;BME280;3098;42.678;23.364;2023-04-26T12:05:23;93993.28;;;16.77;41.58
6134;BME280;3098;42.678;23.364;2023-04-26T12:07:51;93984.03;;;16.34;41.67
6134;BME280;3098;42.678;23.364;2023-04-26T12:10:23;94006.63;;;15.51;44.04
6134;BME280;3098;42.678;23.364;2023-04-26T12:12:52;93991.34;;;14.80;45.92
6134;BME280;3098;42.678;23.364;2023-04-26T12:15:22;93961.34;;;14.45;46.14
6134;BME280;3098;42.678;23.364;2023-04-26T12:17:58;93953.53;;;14.32;46.57
6134;BME280;3098;42.678;23.364;2023-04-26T12:20:32;93909.78;;;14.60;45.66
6134;BME280;3098;42.678;23.364;2023-04-26T12:23:11;93997.00;;;15.73;45.51
6134;BME280;3098;42.678;23.364;2023-04-26T12:25:40;93926.34;;;15.74;43.55
6134;BME280;3098;42.678;23.364;2023-04-26T12:28:10;93965.47;;;15.85;43.90
6134;BME280;3098;42.678;23.364;2023-04-26T12:30:38;93998.47;;;15.70;43.96
6134;BME280;3098;42.678;23.364;2023-04-26T12:33:06;93988.53;;;15.44;43.83
6134;BME280;3098;42.678;23.364;2023-04-26T12:35:37;93912.03;;;14.80;44.51
6134;BME280;3098;42.678;23.364;2023-04-26T12:38:04;93920.22;;;14.68;44.22
6134;BME280;3098;42.678;23.364;2023-04-26T12:40:32;93983.28;;;15.25;44.23
6134;BME280;3098;42.678;23.364;2023-04-26T12:42:59;93898.94;;;14.49;44.73
6134;BME280;3098;42.678;23.364;2023-04-26T12:45:26;93968.78;;;15.00;44.87
6134;BME280;3098;42.678;23.364;2023-04-26T12:47:53;93906.53;;;14.70;45.38
6134;BME280;3098;42.678;23.364;2023-04-26T12:50:21;93983.38;;;14.83;45.30
6134;BME280;3098;42.678;23.364;2023-04-26T12:52:52;93995.34;;;14.70;46.39
6134;BME280;3098;42.678;23.364;2023-04-26T12:55:20;93990.69;;;14.45;47.51
6134;BME280;3098;42.678;23.364;2023-04-26T12:57:47;93863.97;;;13.70;46.64
6134;BME280;3098;42.678;23.364;2023-04-26T13:00:16;93995.38;;;14.51;47.22
6134;BME280;3098;42.678;23.364;2023-04-26T13:02:44;94000.25;;;14.26;47.66
6134;BME280;3098;42.678;23.364;2023-04-26T13:05:11;93938.50;;;13.86;46.97
6134;BME280;3098;42.678;23.364;2023-04-26T13:07:41;93982.22;;;13.81;47.35
6134;BME280;3098;42.678;23.364;2023-04-26T13:10:11;93990.63;;;13.83;47.72
6134;BME280;3098;42.678;23.364;2023-04-26T13:12:38;93986.19;;;13.91;47.97
6134;BME280;3098;42.678;23.364;2023-04-26T13:15:07;93996.63;;;13.80;49.13
6134;BME280;3098;42.678;23.364;2023-04-26T13:17:36;93982.03;;;13.40;49.94
6134;BME280;3098;42.678;23.364;2023-04-26T13:20:04;94019.91;;;13.49;50.34